createdAt,value
2022-10-23T00:00:05.338Z,100342.56
2022-10-23T00:03:11.109Z,100327.69
2022-10-23T00:05:56.666Z,100341.78
2022-10-23T00:08:42.985Z,100335.16
2022-10-23T00:11:30.300Z,100353.75
2022-10-23T00:14:17.810Z,100335.97
2022-10-23T00:17:03.766Z,100329.81
2022-10-23T00:19:49.594Z,100347.31
2022-10-23T00:22:35.550Z,100337.09
2022-10-23T00:25:21.730Z,100347.31
2022-10-23T00:28:07.229Z,100334.53
2022-10-23T00:30:53.573Z,100336.19
2022-10-23T00:33:39.184Z,100329.06
2022-10-23T00:36:25.168Z,100336.06
2022-10-23T00:39:10.789Z,100331.38
2022-10-23T00:41:56.760Z,100326.38
2022-10-23T00:44:42.497Z,100327.38
2022-10-23T00:47:28.482Z,100310.22
2022-10-23T00:50:14.179Z,100324.50
2022-10-23T00:53:02.763Z,100323.84
2022-10-23T00:55:50.595Z,100304.28
2022-10-23T00:58:36.437Z,100330.66
2022-10-23T01:01:24.197Z,100315.75
2022-10-23T01:04:10.967Z,100333.06
2022-10-23T01:07:23.404Z,100329.53
2022-10-23T01:10:18.589Z,100324.84
2022-10-23T01:13:07.368Z,100317.41
2022-10-23T01:15:56.101Z,100317.09
2022-10-23T01:18:45.938Z,100314.97
2022-10-23T01:21:48.067Z,100303.34
2022-10-23T01:24:54.978Z,100305.59
2022-10-23T01:27:42.846Z,100285.53
2022-10-23T01:30:29.468Z,100291.53
2022-10-23T01:33:20.018Z,100306.94
2022-10-23T01:36:12.953Z,100307.72
2022-10-23T01:39:27.459Z,100305.78
2022-10-23T01:42:28.389Z,100318.06
2022-10-23T01:45:49.092Z,100316.16
2022-10-23T01:48:37.890Z,100319.38
2022-10-23T01:51:26.502Z,100304.47
2022-10-23T01:54:13.864Z,100314.41
2022-10-23T01:57:02.444Z,100299.00
2022-10-23T02:00:14.560Z,100310.53
2022-10-23T02:03:13.805Z,100308.91
2022-10-23T02:05:59.928Z,100308.09
2022-10-23T02:08:46.192Z,100308.09
2022-10-23T02:11:35.373Z,100306.19
2022-10-23T02:15:03.993Z,100315.22
2022-10-23T02:18:09.703Z,100307.16
2022-10-23T02:21:10.865Z,100294.97
2022-10-23T02:24:16.529Z,100319.91
2022-10-23T02:27:11.598Z,100313.81
2022-10-23T02:30:04.199Z,100305.06
2022-10-23T02:32:53.000Z,100311.06
2022-10-23T02:35:39.927Z,100311.69
2022-10-23T02:38:41.685Z,100323.84
2022-10-23T02:41:41.860Z,100333.06
2022-10-23T02:44:56.326Z,100334.69
2022-10-23T02:48:01.608Z,100339.88
2022-10-23T02:51:04.039Z,100319.66
2022-10-23T02:54:02.024Z,100339.53
2022-10-23T02:57:26.751Z,100335.84
2022-10-23T03:00:15.825Z,100333.25
2022-10-23T03:03:16.075Z,100341.84
2022-10-23T03:06:01.983Z,100332.91
2022-10-23T03:09:04.250Z,100347.97
2022-10-23T03:11:50.854Z,100329.03
2022-10-23T03:14:37.282Z,100352.69
2022-10-23T03:17:23.016Z,100330.00
2022-10-23T03:20:12.959Z,100357.53
2022-10-23T03:22:58.449Z,100359.16
2022-10-23T03:25:45.916Z,100338.25
2022-10-23T03:28:44.633Z,100346.38
2022-10-23T03:31:30.492Z,100351.91
2022-10-23T03:34:19.374Z,100353.50
2022-10-23T03:37:05.591Z,100335.38
2022-10-23T03:39:51.164Z,100349.94
2022-10-23T03:42:37.584Z,100336.97
2022-10-23T03:45:23.297Z,100341.69
2022-10-23T03:48:09.371Z,100328.59
2022-10-23T03:50:55.311Z,100343.31
2022-10-23T03:53:41.431Z,100356.06
2022-10-23T03:56:26.894Z,100338.13
2022-10-23T03:59:12.763Z,100340.88
2022-10-23T04:01:58.437Z,100334.38
2022-10-23T04:04:44.815Z,100342.63
2022-10-23T04:07:30.460Z,100336.16
2022-10-23T04:10:19.860Z,100348.81
2022-10-23T04:13:05.229Z,100344.09
2022-10-23T04:15:54.858Z,100318.88
2022-10-23T04:18:42.697Z,100342.34
2022-10-23T04:21:29.381Z,100334.53
2022-10-23T04:24:14.924Z,100346.38
2022-10-23T04:27:01.873Z,100338.25
2022-10-23T04:29:49.275Z,100340.38
2022-10-23T04:32:35.404Z,100362.84
2022-10-23T04:35:23.275Z,100358.44
2022-10-23T04:38:08.885Z,100367.16
2022-10-23T04:40:54.868Z,100375.41
2022-10-23T04:43:41.729Z,100380.28
2022-10-23T04:46:27.230Z,100373.00
2022-10-23T04:49:13.034Z,100378.16
2022-10-23T04:52:17.074Z,100363.13
2022-10-23T04:55:18.389Z,100338.00
2022-10-23T04:58:11.249Z,100345.00
2022-10-23T05:00:57.527Z,100360.84
2022-10-23T05:03:45.197Z,100360.66
2022-10-23T05:06:32.157Z,100356.28
2022-10-23T05:09:56.222Z,100378.13
2022-10-23T05:12:46.966Z,100370.84
2022-10-23T05:15:32.511Z,100368.41
2022-10-23T05:18:46.793Z,100369.03
2022-10-23T05:21:33.285Z,100362.03
2022-10-23T05:24:19.101Z,100371.59
2022-10-23T05:27:13.696Z,100379.38
2022-10-23T05:30:02.527Z,100366.72
2022-10-23T05:32:53.137Z,100368.72
2022-10-23T05:35:41.813Z,100359.78
2022-10-23T05:38:29.834Z,100365.78
2022-10-23T05:41:15.927Z,100376.66
2022-10-23T05:44:01.781Z,100359.28
2022-10-23T05:47:26.261Z,100367.03
2022-10-23T05:50:24.585Z,100386.00
2022-10-23T05:53:33.309Z,100373.66
2022-10-23T05:56:30.806Z,100388.06
2022-10-23T05:59:28.954Z,100380.47
2022-10-23T06:02:41.802Z,100381.25
2022-10-23T06:05:50.329Z,100389.09
2022-10-23T06:08:39.575Z,100381.09
2022-10-23T06:11:25.789Z,100398.13
2022-10-23T06:14:19.072Z,100384.00
2022-10-23T06:17:04.924Z,100395.06
2022-10-23T06:20:02.345Z,100382.38
2022-10-23T06:22:52.997Z,100387.59
2022-10-23T06:26:01.344Z,100400.56
2022-10-23T06:28:58.397Z,100394.25
2022-10-23T06:31:45.505Z,100407.34
2022-10-23T06:34:32.382Z,100398.13
2022-10-23T06:37:18.016Z,100390.00
2022-10-23T06:40:19.148Z,100389.50
2022-10-23T06:43:21.408Z,100402.50
2022-10-23T06:46:34.879Z,100406.88
2022-10-23T06:49:40.030Z,100394.38
2022-10-23T06:52:45.852Z,100392.44
2022-10-23T06:55:33.726Z,100393.88
2022-10-23T06:58:19.731Z,100397.19
2022-10-23T07:01:28.722Z,100397.19
2022-10-23T07:04:14.733Z,100413.91
2022-10-23T07:07:01.714Z,100405.66
2022-10-23T07:09:56.548Z,100410.50
2022-10-23T07:13:03.172Z,100423.66
2022-10-23T07:16:23.816Z,100417.19
2022-10-23T07:19:09.532Z,100426.63
2022-10-23T07:22:15.786Z,100406.03
2022-10-23T07:25:25.213Z,100414.19
2022-10-23T07:28:12.125Z,100406.09
2022-10-23T07:31:01.119Z,100411.78
2022-10-23T07:34:07.126Z,100411.28
2022-10-23T07:36:54.829Z,100416.97
2022-10-23T07:39:40.888Z,100405.78
2022-10-23T07:42:26.339Z,100419.72
2022-10-23T07:45:12.753Z,100414.22
2022-10-23T07:48:01.888Z,100417.97
2022-10-23T07:51:01.862Z,100417.31
2022-10-23T07:53:49.364Z,100413.13
2022-10-23T07:56:54.381Z,100411.16
2022-10-23T07:59:44.254Z,100416.56
2022-10-23T08:02:31.791Z,100417.81
2022-10-23T08:05:19.771Z,100427.22
2022-10-23T08:08:12.635Z,100428.34
2022-10-23T08:11:00.920Z,100434.50
2022-10-23T08:13:53.152Z,100446.31
2022-10-23T08:16:39.546Z,100436.56
2022-10-23T08:19:25.904Z,100443.22
2022-10-23T08:22:12.748Z,100452.13
2022-10-23T08:24:58.909Z,100436.72
2022-10-23T08:27:44.808Z,100447.56
2022-10-23T08:30:33.035Z,100458.59
2022-10-23T08:33:18.619Z,100455.53
2022-10-23T08:36:05.123Z,100433.00
2022-10-23T08:38:54.886Z,100458.78
2022-10-23T08:41:44.131Z,100454.41
2022-10-23T08:44:33.136Z,100450.50
2022-10-23T08:47:26.697Z,100448.06
2022-10-23T08:50:34.579Z,100451.84
2022-10-23T08:53:23.226Z,100429.78
2022-10-23T08:56:16.281Z,100450.50
2022-10-23T08:59:28.422Z,100468.81
2022-10-23T09:02:19.220Z,100462.84
2022-10-23T09:05:06.942Z,100466.56
2022-10-23T09:08:21.738Z,100477.13
2022-10-23T09:11:16.679Z,100469.00
2022-10-23T09:14:19.537Z,100463.84
2022-10-23T09:17:28.108Z,100475.66
2022-10-23T09:20:18.242Z,100469.69
2022-10-23T09:23:19.179Z,100457.38
2022-10-23T09:26:25.172Z,100472.13
2022-10-23T09:29:29.573Z,100475.53
2022-10-23T09:32:15.132Z,100463.22
2022-10-23T09:35:00.714Z,100475.22
2022-10-23T09:37:48.506Z,100465.69
2022-10-23T09:40:44.439Z,100476.03
2022-10-23T09:43:30.318Z,100478.31
2022-10-23T09:46:22.178Z,100467.59
2022-10-23T09:49:27.233Z,100480.56
2022-10-23T09:52:13.084Z,100487.38
2022-10-23T09:55:00.804Z,100481.22
2022-10-23T09:57:47.316Z,100485.59
2022-10-23T10:00:33.745Z,100469.56
2022-10-23T10:03:23.923Z,100479.59
2022-10-23T10:06:32.189Z,100471.16
2022-10-23T10:09:18.424Z,100478.28
2022-10-23T10:12:33.922Z,100471.81
2022-10-23T10:15:24.957Z,100486.72
2022-10-23T10:18:39.769Z,100480.09
2022-10-23T10:21:39.011Z,100480.09
2022-10-23T10:24:32.670Z,100493.03
2022-10-23T10:27:55.406Z,100491.59
2022-10-23T10:30:56.042Z,100491.91
2022-10-23T10:34:03.290Z,100495.28
2022-10-23T10:36:56.803Z,100480.72
2022-10-23T10:39:50.429Z,100489.28
2022-10-23T10:42:56.119Z,100497.38
2022-10-23T10:45:49.778Z,100470.00
2022-10-23T10:48:42.552Z,100482.78
2022-10-23T10:52:04.258Z,100476.47
2022-10-23T10:55:11.958Z,100474.00
2022-10-23T10:58:03.166Z,100450.53
2022-10-23T11:00:53.226Z,100468.81
2022-10-23T11:03:44.173Z,100471.75
2022-10-23T11:06:32.275Z,100451.19
2022-10-23T11:09:21.692Z,100462.66
2022-10-23T11:12:07.205Z,100442.72
2022-10-23T11:14:53.021Z,100456.16
2022-10-23T11:17:41.094Z,100456.44
2022-10-23T11:20:40.094Z,100460.28
2022-10-23T11:23:46.202Z,100450.41
2022-10-23T11:26:41.475Z,100452.34
2022-10-23T11:29:59.701Z,100448.44
2022-10-23T11:33:04.437Z,100452.16
2022-10-23T11:36:14.171Z,100453.63
2022-10-23T11:39:15.461Z,100445.06
2022-10-23T11:42:03.850Z,100439.56
2022-10-23T11:44:50.428Z,100446.03
2022-10-23T11:47:40.575Z,100440.50
2022-10-23T11:50:32.946Z,100437.91
2022-10-23T11:53:33.422Z,100438.06
2022-10-23T11:56:19.615Z,100435.63
2022-10-23T11:59:49.625Z,100431.41
2022-10-23T12:02:39.922Z,100436.94
2022-10-23T12:05:36.300Z,100436.28
2022-10-23T12:08:26.748Z,100429.28
2022-10-23T12:11:49.003Z,100411.63
2022-10-23T12:14:39.036Z,100422.41
2022-10-23T12:17:30.874Z,100427.47
2022-10-23T12:20:25.824Z,100412.53
2022-10-23T12:23:30.198Z,100416.88
2022-10-23T12:26:42.000Z,100415.38
2022-10-23T12:29:49.515Z,100402.78
2022-10-23T12:32:57.515Z,100415.09
2022-10-23T12:35:47.584Z,100420.28
2022-10-23T12:38:35.644Z,100402.03
2022-10-23T12:41:26.924Z,100415.81
2022-10-23T12:44:13.040Z,100410.63
2022-10-23T12:47:01.267Z,100389.13
2022-10-23T12:49:50.914Z,100415.16
2022-10-23T12:52:39.768Z,100406.06
2022-10-23T12:55:26.499Z,100398.66
2022-10-23T12:58:30.676Z,100394.44
2022-10-23T13:01:31.065Z,100413.53
2022-10-23T13:04:35.118Z,100407.06
2022-10-23T13:07:24.315Z,100406.59
2022-10-23T13:10:18.677Z,100397.06
2022-10-23T13:13:17.858Z,100392.50
2022-10-23T13:16:23.103Z,100376.81
2022-10-23T13:19:23.060Z,100390.25
2022-10-23T13:22:18.864Z,100377.44
2022-10-23T13:25:23.379Z,100376.59
2022-10-23T13:28:08.967Z,100387.63
2022-10-23T13:31:12.475Z,100385.53
2022-10-23T13:33:59.275Z,100386.38
2022-10-23T13:37:01.168Z,100383.13
2022-10-23T13:39:46.727Z,100387.34
2022-10-23T13:42:32.584Z,100380.41
2022-10-23T13:45:23.540Z,100383.03
2022-10-23T13:48:14.129Z,100371.72
2022-10-23T13:51:11.993Z,100374.66
2022-10-23T13:53:58.203Z,100372.06
2022-10-23T13:56:44.068Z,100368.16
2022-10-23T13:59:31.142Z,100371.25
2022-10-23T14:02:22.516Z,100369.66
2022-10-23T14:05:09.414Z,100356.88
2022-10-23T14:07:54.923Z,100352.84
2022-10-23T14:10:40.940Z,100357.06
2022-10-23T14:13:26.267Z,100343.66
2022-10-23T14:16:13.496Z,100372.47
2022-10-23T14:18:59.405Z,100363.72
2022-10-23T14:21:45.109Z,100356.91
2022-10-23T14:24:30.713Z,100344.78
2022-10-23T14:27:16.528Z,100340.91
2022-10-23T14:30:02.035Z,100323.44
2022-10-23T14:32:47.972Z,100346.06
2022-10-23T14:35:33.958Z,100334.75
2022-10-23T14:38:19.518Z,100323.44
2022-10-23T14:41:12.511Z,100335.41
2022-10-23T14:43:58.579Z,100336.38
2022-10-23T14:46:44.205Z,100326.53
2022-10-23T14:49:35.721Z,100339.00
2022-10-23T14:52:22.316Z,100333.63
2022-10-23T14:55:08.807Z,100327.50
2022-10-23T14:57:57.456Z,100344.16
2022-10-23T15:00:43.647Z,100323.78
2022-10-23T15:03:30.056Z,100343.38
2022-10-23T15:06:18.347Z,100337.22
2022-10-23T15:09:04.637Z,100334.63
2022-10-23T15:11:50.575Z,100334.13
2022-10-23T15:14:36.747Z,100317.34
2022-10-23T15:17:22.810Z,100314.75
2022-10-23T15:20:09.278Z,100326.53
2022-10-23T15:22:55.111Z,100334.31
2022-10-23T15:25:42.084Z,100315.84
2022-10-23T15:28:28.848Z,100338.53
2022-10-23T15:31:29.772Z,100340.59
2022-10-23T15:34:19.113Z,100319.06
2022-10-23T15:37:05.274Z,100330.41
2022-10-23T15:39:51.506Z,100316.16
2022-10-23T15:42:37.940Z,100332.31
2022-10-23T15:45:26.613Z,100318.72
2022-10-23T15:48:16.087Z,100317.59
2022-10-23T15:51:02.415Z,100301.06
2022-10-23T15:53:48.515Z,100301.03
2022-10-23T15:56:35.489Z,100320.94
2022-10-23T15:59:23.623Z,100307.78
2022-10-23T16:02:11.646Z,100296.59
2022-10-23T16:04:57.439Z,100315.50
2022-10-23T16:07:43.178Z,100313.22
2022-10-23T16:10:28.780Z,100328.44
2022-10-23T16:13:15.099Z,100314.19
2022-10-23T16:16:03.561Z,100317.59
2022-10-23T16:18:49.635Z,100323.72
2022-10-23T16:21:36.474Z,100326.16
2022-10-23T16:24:22.518Z,100310.13
2022-10-23T16:27:08.100Z,100288.25
2022-10-23T16:29:53.921Z,100321.09
2022-10-23T16:32:40.886Z,100306.03
2022-10-23T16:35:27.430Z,100327.38
2022-10-23T16:38:24.507Z,100325.94
2022-10-23T16:41:10.506Z,100327.38
2022-10-23T16:43:59.604Z,100312.31
2022-10-23T16:47:06.878Z,100313.44
2022-10-23T16:49:52.446Z,100328.00
2022-10-23T16:52:38.196Z,100316.97
2022-10-23T16:55:24.361Z,100317.16
2022-10-23T16:58:10.213Z,100321.31
2022-10-23T17:01:16.501Z,100331.69
2022-10-23T17:04:06.875Z,100326.66
2022-10-23T17:06:52.518Z,100317.44
2022-10-23T17:09:38.421Z,100326.03
2022-10-23T17:12:24.046Z,100329.69
2022-10-23T17:15:10.315Z,100328.09
2022-10-23T17:17:55.825Z,100324.03
2022-10-23T17:20:41.809Z,100309.59
2022-10-23T17:23:27.954Z,100318.13
2022-10-23T17:26:16.931Z,100317.97
2022-10-23T17:29:04.952Z,100311.16
2022-10-23T17:31:51.321Z,100317.50
2022-10-23T17:34:36.847Z,100332.06
2022-10-23T17:37:22.652Z,100322.81
2022-10-23T17:40:08.656Z,100313.59
2022-10-23T17:42:55.103Z,100323.81
2022-10-23T17:45:45.019Z,100304.03
2022-10-23T17:48:31.199Z,100321.06
2022-10-23T17:51:21.010Z,100314.25
2022-10-23T17:54:09.780Z,100310.88
2022-10-23T17:56:56.377Z,100312.84
2022-10-23T17:59:42.803Z,100307.16
2022-10-23T18:02:29.185Z,100290.81
2022-10-23T18:05:15.787Z,100317.22
2022-10-23T18:08:02.019Z,100286.75
2022-10-23T18:10:48.209Z,100304.59
2022-10-23T18:13:37.054Z,100300.03
2022-10-23T18:16:23.352Z,100288.91
2022-10-23T18:19:09.247Z,100294.25
2022-10-23T18:21:55.296Z,100292.00
2022-10-23T18:24:41.592Z,100264.44
2022-10-23T18:27:27.706Z,100272.25
2022-10-23T18:30:13.470Z,100265.44
2022-10-23T18:32:59.043Z,100279.41
2022-10-23T18:35:44.668Z,100265.19
2022-10-23T18:38:31.368Z,100253.81
2022-10-23T18:41:17.557Z,100267.31
2022-10-23T18:44:03.667Z,100269.72
2022-10-23T18:46:50.713Z,100254.06
2022-10-23T18:49:36.523Z,100246.63
2022-10-23T18:52:22.195Z,100235.34
2022-10-23T18:55:09.324Z,100247.16
2022-10-23T18:57:55.206Z,100218.53
2022-10-23T19:00:41.796Z,100250.91
2022-10-23T19:03:27.607Z,100229.38
2022-10-23T19:06:17.662Z,100239.28
2022-10-23T19:09:06.919Z,100231.34
2022-10-23T19:11:52.689Z,100228.78
2022-10-23T19:14:39.562Z,100198.69
2022-10-23T19:17:29.211Z,100225.22
2022-10-23T19:20:17.636Z,100191.72
2022-10-23T19:23:05.503Z,100215.69
2022-10-23T19:25:51.540Z,100210.22
2022-10-23T19:28:40.337Z,100210.50
2022-10-23T19:31:26.490Z,100197.91
2022-10-23T19:34:12.429Z,100195.50
2022-10-23T19:36:57.952Z,100192.41
2022-10-23T19:39:44.417Z,100195.81
2022-10-23T19:42:30.397Z,100163.50
2022-10-23T19:45:16.844Z,100187.41
2022-10-23T19:48:04.017Z,100188.53
2022-10-23T19:50:50.406Z,100186.44
2022-10-23T19:53:36.727Z,100179.75
2022-10-23T19:56:23.023Z,100191.44
2022-10-23T19:59:10.206Z,100193.69
2022-10-23T20:01:56.863Z,100197.84
2022-10-23T20:04:43.747Z,100195.44
2022-10-23T20:07:29.491Z,100198.19
2022-10-23T20:10:16.279Z,100198.19
2022-10-23T20:13:18.850Z,100195.59
2022-10-23T20:16:06.182Z,100188.50
2022-10-23T20:18:52.445Z,100163.41
2022-10-23T20:21:40.086Z,100182.69
2022-10-23T20:24:26.339Z,100188.19
2022-10-23T20:27:15.043Z,100181.38
2022-10-23T20:30:01.432Z,100170.25
2022-10-23T20:32:47.139Z,100173.34
2022-10-23T20:35:41.155Z,100173.34
2022-10-23T20:38:26.810Z,100160.56
2022-10-23T20:41:12.806Z,100170.75
2022-10-23T20:43:59.342Z,100176.25
2022-10-23T20:46:45.805Z,100161.38
2022-10-23T20:49:31.366Z,100164.63
2022-10-23T20:52:17.670Z,100172.69
2022-10-23T20:55:03.179Z,100162.84
2022-10-23T20:57:49.143Z,100180.13
2022-10-23T21:00:34.661Z,100155.41
2022-10-23T21:03:20.680Z,100151.03
2022-10-23T21:06:13.509Z,100157.66
2022-10-23T21:09:03.208Z,100155.25
2022-10-23T21:11:49.128Z,100142.47
2022-10-23T21:14:35.837Z,100143.94
2022-10-23T21:17:21.778Z,100129.22
2022-10-23T21:20:08.324Z,100108.84
2022-10-23T21:22:55.401Z,100127.13
2022-10-23T21:25:41.673Z,100120.84
2022-10-23T21:28:27.274Z,100126.97
2022-10-23T21:31:13.184Z,100093.31
2022-10-23T21:33:58.985Z,100123.41
2022-10-23T21:37:10.808Z,100116.75
2022-10-23T21:39:51.880Z,100110.47
2022-10-23T21:42:37.919Z,100109.63
2022-10-23T21:45:23.349Z,100119.50
2022-10-23T21:48:09.079Z,100139.38
2022-10-23T21:51:01.238Z,100110.28
2022-10-23T21:53:47.080Z,100112.88
2022-10-23T21:56:37.293Z,100121.59
2022-10-23T21:59:27.737Z,100124.69
2022-10-23T22:02:16.141Z,100110.41
2022-10-23T22:05:02.167Z,100114.16
2022-10-23T22:07:48.713Z,100089.75
2022-10-23T22:10:35.566Z,100104.94
2022-10-23T22:13:21.407Z,100112.88
2022-10-23T22:16:07.400Z,100110.47
2022-10-23T22:18:53.071Z,100112.38
2022-10-23T22:21:39.182Z,100104.63
2022-10-23T22:24:25.164Z,100093.81
2022-10-23T22:27:11.228Z,100102.03
2022-10-23T22:29:58.450Z,100106.88
2022-10-23T22:32:44.328Z,100111.25
2022-10-23T22:35:30.812Z,100104.59
2022-10-23T22:38:16.833Z,100095.22
2022-10-23T22:41:03.334Z,100076.66
2022-10-23T22:43:54.320Z,100096.53
2022-10-23T22:46:41.149Z,100057.13
2022-10-23T22:49:26.648Z,100067.31
2022-10-23T22:52:12.046Z,100070.72
2022-10-23T22:54:58.060Z,100054.56
2022-10-23T22:57:43.871Z,100080.88
2022-10-23T23:00:30.394Z,100080.88
2022-10-23T23:03:16.257Z,100081.03
2022-10-23T23:06:02.956Z,100088.28
2022-10-23T23:08:49.666Z,100105.25
2022-10-23T23:11:45.700Z,100099.94
2022-10-23T23:14:37.810Z,100098.66
2022-10-23T23:17:23.495Z,100093.47
2022-10-23T23:20:09.221Z,100088.31
2022-10-23T23:22:55.015Z,100063.91
2022-10-23T23:25:42.477Z,100082.63
2022-10-23T23:28:28.583Z,100062.47
2022-10-23T23:31:18.492Z,100054.22
2022-10-23T23:34:04.703Z,100053.25
2022-10-23T23:36:50.348Z,100031.41
2022-10-23T23:39:36.245Z,100027.38
2022-10-23T23:42:21.529Z,100044.47
2022-10-23T23:45:14.620Z,100054.97
2022-10-23T23:48:00.750Z,100046.09
2022-10-23T23:50:46.624Z,100068.38
2022-10-23T23:53:32.072Z,100072.41
2022-10-23T23:56:19.041Z,100063.69
2022-10-23T23:59:04.979Z,100062.88
